• Join FlightAware (Why Join?)
  • Login
  • US Flag 
12:29PM EST


 

Airport Tracker/Info


-or-


 

Live Flight TrackerFlight Track Log ✈ GPD111 ✈ 13-Jun-2013 ✈ KMHT - KOXC

Flight Track Log - Related Links

Times and Time Zones

All times are in EDT time to prevent confusion due to time zone crossing. See the GPD111 flight status page for this flight to view local times or setup timezone preferences in your user account.

Time Position Orientation Groundspeed Altitude Reporting Facility
EDT Latitude Longitude Course Direction KTS MPH feet Rate Location/Type
11:51AM 42.9500 -71.4333 340° North 118 136 900  Level KA90
11:53AM 42.9833 -71.4500 340° North 150 173 2,700 1,440 Climbing KA90
11:55AM 43.0161 -71.5625 292° West 156 180 6,100 1,620 Climbing Boston Center
11:56AM 42.9725 -71.6086 218° Southwest 146 168 8,200 1,380 Climbing Boston Center
11:57AM 42.9311 -71.6517 217° Southwest 175 201 8,900 900 Climbing Boston Center
11:58AM 42.8878 -71.6947 216° Southwest 193 222 10,100 600 Climbing Boston Center
11:59AM 42.8442 -71.7406 218° Southwest 207 238 10,100  Level Boston Center
12:00PM 42.7883 -71.7978 217° Southwest 225 259 10,100 -60 Level Boston Center
12:01PM 42.7406 -71.8436 215° Southwest 231 266 10,000  Descending Boston Center
12:02PM 42.6742 -71.8867 205° Southwest 241 277 10,100  Climbing Boston Center
12:03PM 42.6222 -71.9153 202° Southwest 241 277 10,100  Level Boston Center
12:04PM 42.5308 -71.9753 206° Southwest 232 267 10,100 -60 Level Boston Center
12:05PM 42.4869 -72.0008 203° Southwest 228 262 10,000 -120 Descending Boston Center
12:05PM 42.4744 -71.9981 171° South 229 264 10,000 60 Level Boston Center
12:06PM 42.4289 -72.0239 203° Southwest 218 251 10,100  Climbing Boston Center
12:07PM 42.3747 -72.0578 205° Southwest 200 230 10,000  Descending Boston Center
12:08PM 42.3353 -72.0833 206° Southwest 196 226 10,100 60 Climbing Boston Center
12:08PM 42.3353 -72.0778 90° East 212 244 10,100 -600 Level Boston Center
12:09PM 42.2853 -72.1144 208° Southwest 196 226 9,500 -840 Descending Boston Center
12:09PM 42.2728 -72.1203 199° South 207 238 9,300 -1,020 Descending Boston Center
12:10PM 42.2353 -72.1486 209° Southwest 201 231 8,500 -1,140 Descending Boston Center
12:10PM 42.2228 -72.1542 198° South 201 231 8,200 -1,020 Descending Boston Center
12:11PM 42.1833 -72.1822 208° Southwest 205 236 7,500 -900 Descending Boston Center
12:11PM 42.1708 -72.1908 207° Southwest 201 231 7,300 -1,020 Descending Boston Center
12:12PM 42.1314 -72.2189 208° Southwest 214 246 6,500 -1,140 Descending Boston Center
12:12PM 42.1167 -72.2275 203° Southwest 206 237 6,200 -420 Descending Boston Center
12:13PM 42.0792 -72.2556 209° Southwest 210 242 6,100 -120 Descending Boston Center
12:13PM 42.0667 -72.2611 198° South 211 243 6,100  Level Boston Center
12:14PM 42.0336 -72.2864 210° Southwest 198 228 6,100  Level Boston Center
12:14PM 42.0169 -72.2947 200° South 200 230 6,100  Level Boston Center
12:15PM 41.9814 -72.3200 208° Southwest 204 235 6,100  Level Boston Center
12:15PM 41.9669 -72.3283 203° Southwest 200 230 6,100 -120 Level Boston Center
12:16PM 41.9378 -72.3481 207° Southwest 180 207 6,000 -300 Descending Boston Center
12:16PM 41.9253 -72.3564 206° Southwest 184 212 5,800 -840 Descending Boston Center
12:17PM 41.8939 -72.3817 211° Southwest 169 194 5,200 -1,020 Descending Boston Center
12:17PM 41.8836 -72.3872 202° Southwest 173 199 4,800 -1,020 Descending Boston Center
12:18PM 41.8522 -72.4094 208° Southwest 169 194 4,200 -840 Descending Boston Center
12:18PM 41.8439 -72.4150 206° Southwest 173 199 4,000 -120 Descending Boston Center
12:19PM 41.8064 -72.4372 204° Southwest 171 197 4,100  Climbing Boston Center
12:20PM 41.7606 -72.4708 209° Southwest 178 205 4,100  Level Boston Center
12:21PM 41.7208 -72.4958 205° Southwest 171 197 4,100  Level Boston Center
12:22PM 41.6833 -72.5236 209° Southwest 173 199 4,100  Level Boston Center
12:23PM 41.6375 -72.5567 208° Southwest 175 201 4,100  Level Boston Center
12:24PM 41.6186 -72.6261 250° West 184 212 4,100  Level Boston Center
12:25PM 41.5997 -72.6956 250° West 197 227 4,100  Level Boston Center
12:26PM 41.5850 -72.7592 253° West 204 235 4,100 -120 Level Boston Center
12:28PM 41.5500 -72.9000 252° West 206 237 3,900 -120 Descending New York TRACON
12:29PM 41.5000 -72.9500 217° Southwest 187 215 3,900  Level New York TRACON
12:30PM 41.4667 -72.9833 217° Southwest 182 209 3,900  Level New York TRACON
12:31PM 41.4167 -73.0000 194° South 179 206 3,900 -360 Level New York TRACON
12:32PM 41.3667 -73.0333 207° Southwest 185 213 3,200 -540 Descending New York TRACON
12:33PM 41.3167 -73.0500 194° South 172 198 2,900 -180 Descending New York TRACON
12:34PM 41.3333 -73.1000 294° West 196 226 2,900 -240 Level New York TRACON
12:35PM 41.3833 -73.1167 346° North 172 198 2,400 -540 Descending New York TRACON